Weather at Larnaca International Airport

Public forecast

Using degrees Celsius for public forecast. Weather courtesy of forecast.io.

Current aviation weather report (METAR) for Larnaca International Airport

Retrieved 2021/10/24 14:30 UTC (8 minutes ago):

LCLK 241430Z 20010KT 9999 FEW025 24/16 Q1016 NOSIG

Aviation forecast (TAF) for Larnaca International Airport

Retrieved 2021/10/24 12:30 UTC (2 hours ago):

TAF LCLK 241130Z 2412/2512 20012KT 9999 FEW025 BECMG 2417/2420 31007KT BECMG 2508/2510 05010KT